sensor_id;sensor_type;location;lat;lon;timestamp;pressure;altitude;pressure_sealevel;temperature;humidity
78014;BME280;67222;50.182;8.734;2023-06-26T04:32:04;100316.97;;;17.37;77.19
78014;BME280;67222;50.182;8.734;2023-06-26T04:34:29;100317.88;;;17.47;76.90
78014;BME280;67222;50.182;8.734;2023-06-26T04:37:00;100317.16;;;17.52;76.60
78014;BME280;67222;50.182;8.734;2023-06-26T04:39:25;100315.78;;;17.49;76.96
78014;BME280;67222;50.182;8.734;2023-06-26T04:41:51;100318.00;;;17.58;76.48
78014;BME280;67222;50.182;8.734;2023-06-26T04:44:16;100327.22;;;17.62;77.50
78014;BME280;67222;50.182;8.734;2023-06-26T04:46:41;100313.81;;;17.67;77.19
78014;BME280;67222;50.182;8.734;2023-06-26T04:49:08;100327.94;;;17.74;76.61
78014;BME280;67222;50.182;8.734;2023-06-26T04:51:33;100324.97;;;17.75;76.54
78014;BME280;67222;50.182;8.734;2023-06-26T04:53:58;100318.31;;;17.83;76.57
78014;BME280;67222;50.182;8.734;2023-06-26T04:56:23;100325.59;;;17.82;77.04
78014;BME280;67222;50.182;8.734;2023-06-26T04:58:49;100321.63;;;17.90;76.97
78014;BME280;67222;50.182;8.734;2023-06-26T05:01:14;100313.59;;;17.95;77.27
78014;BME280;67222;50.182;8.734;2023-06-26T05:03:39;100315.81;;;18.03;77.29
78014;BME280;67222;50.182;8.734;2023-06-26T05:06:05;100318.31;;;18.10;77.49
78014;BME280;67222;50.182;8.734;2023-06-26T05:08:30;100310.47;;;18.08;76.58
78014;BME280;67222;50.182;8.734;2023-06-26T05:10:55;100315.13;;;18.18;76.62
78014;BME280;67222;50.182;8.734;2023-06-26T05:13:24;100316.59;;;18.31;75.60
78014;BME280;67222;50.182;8.734;2023-06-26T05:15:51;100315.56;;;18.37;75.90
78014;BME280;67222;50.182;8.734;2023-06-26T05:18:17;100319.16;;;18.42;76.14
78014;BME280;67222;50.182;8.734;2023-06-26T05:20:42;100311.38;;;18.51;76.14
78014;BME280;67222;50.182;8.734;2023-06-26T05:23:08;100313.03;;;18.57;75.96
78014;BME280;67222;50.182;8.734;2023-06-26T05:25:35;100314.75;;;18.63;76.15
78014;BME280;67222;50.182;8.734;2023-06-26T05:28:02;100321.00;;;18.74;75.82
78014;BME280;67222;50.182;8.734;2023-06-26T05:30:30;100319.44;;;18.78;75.53
78014;BME280;67222;50.182;8.734;2023-06-26T05:32:59;100322.97;;;18.84;75.38
78014;BME280;67222;50.182;8.734;2023-06-26T05:35:27;100313.81;;;18.90;75.81
78014;BME280;67222;50.182;8.734;2023-06-26T05:37:54;100309.50;;;18.94;75.68
78014;BME280;67222;50.182;8.734;2023-06-26T05:40:20;100315.78;;;18.99;75.35
78014;BME280;67222;50.182;8.734;2023-06-26T05:42:46;100315.00;;;19.04;74.88
78014;BME280;67222;50.182;8.734;2023-06-26T05:45:11;100313.13;;;19.10;74.57
78014;BME280;67222;50.182;8.734;2023-06-26T05:47:37;100316.69;;;19.15;73.54
78014;BME280;67222;50.182;8.734;2023-06-26T05:50:03;100317.78;;;19.19;72.85
78014;BME280;67222;50.182;8.734;2023-06-26T05:52:29;100320.22;;;19.26;73.54
78014;BME280;67222;50.182;8.734;2023-06-26T05:54:55;100308.94;;;19.34;72.85
78014;BME280;67222;50.182;8.734;2023-06-26T05:57:24;100309.50;;;19.46;73.29
78014;BME280;67222;50.182;8.734;2023-06-26T05:59:49;100320.31;;;19.51;70.93
78014;BME280;67222;50.182;8.734;2023-06-26T06:02:16;100309.56;;;19.56;71.28
78014;BME280;67222;50.182;8.734;2023-06-26T06:04:41;100312.28;;;19.66;71.02
78014;BME280;67222;50.182;8.734;2023-06-26T06:07:06;100294.19;;;19.72;70.34
78014;BME280;67222;50.182;8.734;2023-06-26T06:09:32;100301.78;;;19.85;69.45
78014;BME280;67222;50.182;8.734;2023-06-26T06:11:58;100303.69;;;20.05;68.69
78014;BME280;67222;50.182;8.734;2023-06-26T06:14:23;100295.88;;;20.14;68.93
78014;BME280;67222;50.182;8.734;2023-06-26T06:16:49;100297.50;;;20.30;67.14
78014;BME280;67222;50.182;8.734;2023-06-26T06:19:14;100301.03;;;20.41;67.57
78014;BME280;67222;50.182;8.734;2023-06-26T06:21:39;100304.03;;;20.49;67.29
78014;BME280;67222;50.182;8.734;2023-06-26T06:24:05;100300.19;;;20.61;66.90
78014;BME280;67222;50.182;8.734;2023-06-26T06:26:32;100303.44;;;20.73;65.98
78014;BME280;67222;50.182;8.734;2023-06-26T06:28:57;100306.41;;;20.86;65.07
78014;BME280;67222;50.182;8.734;2023-06-26T06:31:22;100303.09;;;21.10;63.29
78014;BME280;67222;50.182;8.734;2023-06-26T06:33:47;100297.88;;;21.24;63.52
78014;BME280;67222;50.182;8.734;2023-06-26T06:36:13;100292.94;;;21.46;61.67
78014;BME280;67222;50.182;8.734;2023-06-26T06:38:38;100299.91;;;21.62;60.55
78014;BME280;67222;50.182;8.734;2023-06-26T06:41:03;100299.78;;;21.83;57.44
78014;BME280;67222;50.182;8.734;2023-06-26T06:43:29;100289.59;;;22.03;57.17
78014;BME280;67222;50.182;8.734;2023-06-26T06:45:54;100287.94;;;22.13;56.95
78014;BME280;67222;50.182;8.734;2023-06-26T06:48:19;100296.03;;;22.18;57.00
78014;BME280;67222;50.182;8.734;2023-06-26T06:50:44;100294.09;;;22.23;56.40
78014;BME280;67222;50.182;8.734;2023-06-26T06:53:10;100292.94;;;22.29;56.26
78014;BME280;67222;50.182;8.734;2023-06-26T06:55:35;100284.19;;;22.38;55.01
78014;BME280;67222;50.182;8.734;2023-06-26T06:58:00;100294.19;;;22.42;55.62
78014;BME280;67222;50.182;8.734;2023-06-26T07:00:26;100294.66;;;22.49;56.16
78014;BME280;67222;50.182;8.734;2023-06-26T07:02:52;100285.63;;;22.59;54.94
78014;BME280;67222;50.182;8.734;2023-06-26T07:05:18;100296.41;;;22.69;54.48
78014;BME280;67222;50.182;8.734;2023-06-26T07:07:43;100301.19;;;22.77;53.29
78014;BME280;67222;50.182;8.734;2023-06-26T07:10:10;100294.63;;;22.83;52.88
78014;BME280;67222;50.182;8.734;2023-06-26T07:12:36;100293.16;;;22.96;53.02
78014;BME280;67222;50.182;8.734;2023-06-26T07:15:03;100301.25;;;23.01;54.80
78014;BME280;67222;50.182;8.734;2023-06-26T07:17:30;100288.97;;;23.04;54.23
78014;BME280;67222;50.182;8.734;2023-06-26T07:19:55;100287.88;;;23.05;53.99
78014;BME280;67222;50.182;8.734;2023-06-26T07:22:20;100284.00;;;23.11;54.92
78014;BME280;67222;50.182;8.734;2023-06-26T07:24:48;100285.63;;;23.12;55.36
78014;BME280;67222;50.182;8.734;2023-06-26T07:27:15;100286.22;;;23.09;54.87
78014;BME280;67222;50.182;8.734;2023-06-26T07:29:41;100287.03;;;23.09;54.43
78014;BME280;67222;50.182;8.734;2023-06-26T07:32:06;100298.66;;;23.15;53.87
78014;BME280;67222;50.182;8.734;2023-06-26T07:34:32;100291.50;;;23.19;54.22
78014;BME280;67222;50.182;8.734;2023-06-26T07:36:58;100294.16;;;23.24;54.36
78014;BME280;67222;50.182;8.734;2023-06-26T07:39:23;100294.34;;;23.33;53.54
78014;BME280;67222;50.182;8.734;2023-06-26T07:41:48;100293.94;;;23.44;52.13
78014;BME280;67222;50.182;8.734;2023-06-26T07:44:14;100295.09;;;23.62;51.42
78014;BME280;67222;50.182;8.734;2023-06-26T07:46:39;100294.53;;;23.60;53.29
78014;BME280;67222;50.182;8.734;2023-06-26T07:49:04;100295.94;;;23.76;50.92
78014;BME280;67222;50.182;8.734;2023-06-26T07:51:30;100294.78;;;23.82;52.27
78014;BME280;67222;50.182;8.734;2023-06-26T07:53:55;100297.56;;;23.96;51.27
78014;BME280;67222;50.182;8.734;2023-06-26T07:56:20;100297.00;;;23.99;50.52
78014;BME280;67222;50.182;8.734;2023-06-26T07:58:46;100283.28;;;24.04;50.24
78014;BME280;67222;50.182;8.734;2023-06-26T08:01:11;100271.03;;;24.21;50.59
78014;BME280;67222;50.182;8.734;2023-06-26T08:03:36;100266.75;;;24.33;49.73
78014;BME280;67222;50.182;8.734;2023-06-26T08:06:02;100256.88;;;24.37;48.94
78014;BME280;67222;50.182;8.734;2023-06-26T08:08:28;100280.13;;;24.49;48.73
78014;BME280;67222;50.182;8.734;2023-06-26T08:10:53;100271.38;;;24.65;48.68
78014;BME280;67222;50.182;8.734;2023-06-26T08:13:19;100278.06;;;24.73;46.94
78014;BME280;67222;50.182;8.734;2023-06-26T08:15:44;100279.25;;;24.81;45.55
78014;BME280;67222;50.182;8.734;2023-06-26T08:18:09;100269.78;;;25.05;43.93
78014;BME280;67222;50.182;8.734;2023-06-26T08:20:34;100269.97;;;25.09;44.70
78014;BME280;67222;50.182;8.734;2023-06-26T08:23:03;100274.88;;;25.12;45.65
78014;BME280;67222;50.182;8.734;2023-06-26T08:25:29;100277.66;;;25.21;46.37
78014;BME280;67222;50.182;8.734;2023-06-26T08:27:54;100279.91;;;25.32;46.86
78014;BME280;67222;50.182;8.734;2023-06-26T08:30:20;100267.56;;;25.35;44.84
78014;BME280;67222;50.182;8.734;2023-06-26T08:32:46;100280.28;;;25.40;45.78
78014;BME280;67222;50.182;8.734;2023-06-26T08:35:11;100284.31;;;25.42;43.58
78014;BME280;67222;50.182;8.734;2023-06-26T08:37:37;100285.31;;;25.46;43.84
78014;BME280;67222;50.182;8.734;2023-06-26T08:40:03;100284.09;;;25.52;44.91
78014;BME280;67222;50.182;8.734;2023-06-26T08:42:29;100289.97;;;25.46;44.13
78014;BME280;67222;50.182;8.734;2023-06-26T08:44:54;100288.34;;;25.45;44.98
78014;BME280;67222;50.182;8.734;2023-06-26T08:47:19;100291.81;;;25.50;45.79
78014;BME280;67222;50.182;8.734;2023-06-26T08:49:56;100298.16;;;25.46;45.40
78014;BME280;67222;50.182;8.734;2023-06-26T08:52:30;100305.97;;;25.39;45.12
78014;BME280;67222;50.182;8.734;2023-06-26T08:54:58;100305.97;;;25.39;47.25
78014;BME280;67222;50.182;8.734;2023-06-26T08:57:25;100302.50;;;25.47;47.35
78014;BME280;67222;50.182;8.734;2023-06-26T08:59:51;100293.91;;;25.53;46.71
78014;BME280;67222;50.182;8.734;2023-06-26T09:02:17;100291.56;;;25.47;46.85
78014;BME280;67222;50.182;8.734;2023-06-26T09:04:42;100291.88;;;25.45;45.86
78014;BME280;67222;50.182;8.734;2023-06-26T09:07:07;100283.47;;;25.55;46.97
78014;BME280;67222;50.182;8.734;2023-06-26T09:09:33;100286.28;;;25.64;46.92
78014;BME280;67222;50.182;8.734;2023-06-26T09:11:58;100292.19;;;25.71;48.21
78014;BME280;67222;50.182;8.734;2023-06-26T09:14:24;100291.72;;;25.91;45.44
78014;BME280;67222;50.182;8.734;2023-06-26T09:16:49;100290.66;;;26.01;46.44
78014;BME280;67222;50.182;8.734;2023-06-26T09:19:15;100291.72;;;26.14;46.21
78014;BME280;67222;50.182;8.734;2023-06-26T09:21:43;100284.94;;;26.34;43.42
78014;BME280;67222;50.182;8.734;2023-06-26T09:24:09;100279.19;;;26.35;45.41
78014;BME280;67222;50.182;8.734;2023-06-26T09:26:39;100290.13;;;26.35;45.44
78014;BME280;67222;50.182;8.734;2023-06-26T09:29:06;100297.44;;;26.26;44.32
78014;BME280;67222;50.182;8.734;2023-06-26T09:31:36;100293.41;;;26.23;43.07
78014;BME280;67222;50.182;8.734;2023-06-26T09:34:02;100292.16;;;26.30;44.17
78014;BME280;67222;50.182;8.734;2023-06-26T09:36:29;100290.13;;;26.35;44.43
78014;BME280;67222;50.182;8.734;2023-06-26T09:39:06;100297.59;;;26.43;44.77
78014;BME280;67222;50.182;8.734;2023-06-26T09:41:35;100304.66;;;26.44;43.93
78014;BME280;67222;50.182;8.734;2023-06-26T09:44:03;100307.25;;;26.49;44.02
78014;BME280;67222;50.182;8.734;2023-06-26T09:46:30;100302.78;;;26.53;43.50
78014;BME280;67222;50.182;8.734;2023-06-26T09:49:06;100292.81;;;26.58;42.28
78014;BME280;67222;50.182;8.734;2023-06-26T09:51:36;100288.84;;;26.64;43.11
78014;BME280;67222;50.182;8.734;2023-06-26T09:54:02;100295.69;;;26.83;42.62
78014;BME280;67222;50.182;8.734;2023-06-26T09:56:29;100297.00;;;26.95;43.36
78014;BME280;67222;50.182;8.734;2023-06-26T09:58:59;100303.06;;;27.14;42.62
78014;BME280;67222;50.182;8.734;2023-06-26T10:01:26;100300.16;;;27.10;42.97
78014;BME280;67222;50.182;8.734;2023-06-26T10:03:53;100305.81;;;27.14;43.50
78014;BME280;67222;50.182;8.734;2023-06-26T10:06:22;100293.13;;;27.18;44.42
78014;BME280;67222;50.182;8.734;2023-06-26T10:08:48;100306.00;;;27.26;45.76
78014;BME280;67222;50.182;8.734;2023-06-26T10:11:16;100303.31;;;27.35;43.76
78014;BME280;67222;50.182;8.734;2023-06-26T10:13:45;100299.94;;;27.38;42.97
78014;BME280;67222;50.182;8.734;2023-06-26T10:16:13;100300.59;;;27.61;43.30
78014;BME280;67222;50.182;8.734;2023-06-26T10:18:43;100305.16;;;27.83;43.74
78014;BME280;67222;50.182;8.734;2023-06-26T10:21:10;100308.41;;;28.11;44.02
78014;BME280;67222;50.182;8.734;2023-06-26T10:23:37;100307.75;;;28.31;43.78
78014;BME280;67222;50.182;8.734;2023-06-26T10:26:06;100315.63;;;28.06;41.77
78014;BME280;67222;50.182;8.734;2023-06-26T10:28:33;100313.09;;;27.93;41.80
78014;BME280;67222;50.182;8.734;2023-06-26T10:31:00;100311.16;;;27.93;42.64
78014;BME280;67222;50.182;8.734;2023-06-26T10:33:27;100314.81;;;27.89;43.55
78014;BME280;67222;50.182;8.734;2023-06-26T10:35:52;100311.94;;;27.94;45.02
78014;BME280;67222;50.182;8.734;2023-06-26T10:38:17;100317.75;;;27.92;45.61
78014;BME280;67222;50.182;8.734;2023-06-26T10:40:48;100307.91;;;27.83;42.80
78014;BME280;67222;50.182;8.734;2023-06-26T10:43:18;100311.59;;;27.87;43.71
78014;BME280;67222;50.182;8.734;2023-06-26T10:45:49;100302.25;;;27.88;43.46
78014;BME280;67222;50.182;8.734;2023-06-26T10:48:19;100294.19;;;28.00;42.95
78014;BME280;67222;50.182;8.734;2023-06-26T10:50:48;100294.19;;;28.17;42.93
78014;BME280;67222;50.182;8.734;2023-06-26T10:56:02;100313.97;;;28.57;42.15
78014;BME280;67222;50.182;8.734;2023-06-26T10:58:29;100314.13;;;28.70;41.25
78014;BME280;67222;50.182;8.734;2023-06-26T11:01:17;100313.66;;;28.68;41.29
78014;BME280;67222;50.182;8.734;2023-06-26T11:04:09;100309.81;;;28.43;41.94
78014;BME280;67222;50.182;8.734;2023-06-26T11:06:39;100308.34;;;28.54;42.44
78014;BME280;67222;50.182;8.734;2023-06-26T11:14:19;100320.81;;;27.91;41.13
78014;BME280;67222;50.182;8.734;2023-06-26T11:16:45;100324.34;;;27.74;41.80
78014;BME280;67222;50.182;8.734;2023-06-26T11:19:11;100329.34;;;27.81;42.71
78014;BME280;67222;50.182;8.734;2023-06-26T11:21:40;100327.22;;;27.69;42.25
78014;BME280;67222;50.182;8.734;2023-06-26T11:24:06;100332.25;;;27.75;41.96
78014;BME280;67222;50.182;8.734;2023-06-26T11:26:37;100337.03;;;27.61;42.30
78014;BME280;67222;50.182;8.734;2023-06-26T11:29:03;100340.81;;;27.91;41.70
78014;BME280;67222;50.182;8.734;2023-06-26T11:31:31;100332.28;;;28.27;41.19
78014;BME280;67222;50.182;8.734;2023-06-26T11:33:58;100337.53;;;28.58;41.85
78014;BME280;67222;50.182;8.734;2023-06-26T11:36:25;100334.75;;;28.84;41.63
78014;BME280;67222;50.182;8.734;2023-06-26T11:39:00;100330.19;;;28.97;41.44
78014;BME280;67222;50.182;8.734;2023-06-26T11:41:29;100331.84;;;29.28;41.68
78014;BME280;67222;50.182;8.734;2023-06-26T11:43:55;100335.81;;;29.39;40.24
78014;BME280;67222;50.182;8.734;2023-06-26T11:46:22;100338.72;;;29.42;39.04
78014;BME280;67222;50.182;8.734;2023-06-26T11:48:48;100333.81;;;29.57;41.53
78014;BME280;67222;50.182;8.734;2023-06-26T11:51:14;100335.34;;;29.66;39.68
78014;BME280;67222;50.182;8.734;2023-06-26T11:53:43;100327.31;;;29.82;39.33
78014;BME280;67222;50.182;8.734;2023-06-26T11:56:14;100330.38;;;29.60;38.67
78014;BME280;67222;50.182;8.734;2023-06-26T12:01:57;100347.69;;;29.22;39.14
78014;BME280;67222;50.182;8.734;2023-06-26T12:04:23;100346.47;;;29.40;40.55
78014;BME280;67222;50.182;8.734;2023-06-26T12:06:51;100344.09;;;29.30;39.56
78014;BME280;67222;50.182;8.734;2023-06-26T12:09:19;100352.31;;;29.39;42.02
78014;BME280;67222;50.182;8.734;2023-06-26T12:11:46;100360.56;;;29.30;40.49
78014;BME280;67222;50.182;8.734;2023-06-26T12:14:14;100346.31;;;28.99;40.20
78014;BME280;67222;50.182;8.734;2023-06-26T12:16:40;100348.66;;;28.71;42.12
78014;BME280;67222;50.182;8.734;2023-06-26T12:19:07;100357.06;;;28.65;41.78
78014;BME280;67222;50.182;8.734;2023-06-26T12:24:13;100352.34;;;28.75;42.96
78014;BME280;67222;50.182;8.734;2023-06-26T12:26:45;100355.09;;;28.83;42.24
78014;BME280;67222;50.182;8.734;2023-06-26T12:29:15;100359.13;;;28.77;41.99
78014;BME280;67222;50.182;8.734;2023-06-26T12:31:43;100355.47;;;28.64;41.19
78014;BME280;67222;50.182;8.734;2023-06-26T12:34:13;100355.91;;;28.75;40.84
78014;BME280;67222;50.182;8.734;2023-06-26T12:36:45;100356.22;;;28.91;41.69
78014;BME280;67222;50.182;8.734;2023-06-26T12:39:11;100353.56;;;29.12;41.52
78014;BME280;67222;50.182;8.734;2023-06-26T12:41:52;100346.91;;;29.21;42.02
78014;BME280;67222;50.182;8.734;2023-06-26T12:44:30;100355.84;;;29.39;40.54
78014;BME280;67222;50.182;8.734;2023-06-26T12:47:00;100360.19;;;29.49;40.99
78014;BME280;67222;50.182;8.734;2023-06-26T12:49:34;100366.06;;;29.30;40.48
78014;BME280;67222;50.182;8.734;2023-06-26T12:52:00;100353.47;;;29.29;41.29
78014;BME280;67222;50.182;8.734;2023-06-26T12:54:27;100360.84;;;29.37;40.56
78014;BME280;67222;50.182;8.734;2023-06-26T12:56:52;100364.78;;;29.28;41.31
78014;BME280;67222;50.182;8.734;2023-06-26T12:59:18;100354.69;;;29.11;41.45
78014;BME280;67222;50.182;8.734;2023-06-26T13:01:43;100365.66;;;29.11;40.68
78014;BME280;67222;50.182;8.734;2023-06-26T13:04:08;100371.50;;;29.09;40.67
78014;BME280;67222;50.182;8.734;2023-06-26T13:06:34;100372.31;;;29.10;40.92
78014;BME280;67222;50.182;8.734;2023-06-26T13:08:59;100369.09;;;29.08;40.63
78014;BME280;67222;50.182;8.734;2023-06-26T13:11:24;100370.28;;;28.89;41.89
78014;BME280;67222;50.182;8.734;2023-06-26T13:13:49;100369.47;;;28.63;41.59
78014;BME280;67222;50.182;8.734;2023-06-26T13:16:16;100366.38;;;28.82;41.85
78014;BME280;67222;50.182;8.734;2023-06-26T13:18:41;100369.09;;;28.99;42.01
78014;BME280;67222;50.182;8.734;2023-06-26T13:21:06;100365.81;;;29.14;40.84
78014;BME280;67222;50.182;8.734;2023-06-26T13:23:32;100378.94;;;29.00;40.25
78014;BME280;67222;50.182;8.734;2023-06-26T13:25:57;100369.28;;;29.03;40.58
78014;BME280;67222;50.182;8.734;2023-06-26T13:28:22;100362.25;;;29.14;40.89
78014;BME280;67222;50.182;8.734;2023-06-26T13:30:48;100363.88;;;29.15;40.55
78014;BME280;67222;50.182;8.734;2023-06-26T13:33:14;100379.13;;;28.95;42.50
78014;BME280;67222;50.182;8.734;2023-06-26T13:35:39;100371.47;;;28.37;40.07
78014;BME280;67222;50.182;8.734;2023-06-26T13:38:05;100365.78;;;28.24;41.65
78014;BME280;67222;50.182;8.734;2023-06-26T13:40:30;100368.88;;;28.14;43.44
78014;BME280;67222;50.182;8.734;2023-06-26T13:42:56;100372.91;;;28.17;41.82
78014;BME280;67222;50.182;8.734;2023-06-26T13:45:21;100386.91;;;28.06;42.55
78014;BME280;67222;50.182;8.734;2023-06-26T13:47:46;100389.59;;;27.63;41.05
78014;BME280;67222;50.182;8.734;2023-06-26T13:50:12;100389.94;;;27.70;42.60
78014;BME280;67222;50.182;8.734;2023-06-26T13:52:37;100395.69;;;27.60;42.46
78014;BME280;67222;50.182;8.734;2023-06-26T13:55:02;100396.97;;;27.54;42.28
78014;BME280;67222;50.182;8.734;2023-06-26T13:57:29;100397.66;;;27.68;42.11
78014;BME280;67222;50.182;8.734;2023-06-26T13:59:55;100398.69;;;27.90;41.70
78014;BME280;67222;50.182;8.734;2023-06-26T14:02:20;100394.03;;;28.25;41.02
78014;BME280;67222;50.182;8.734;2023-06-26T14:04:46;100403.41;;;28.50;40.30
78014;BME280;67222;50.182;8.734;2023-06-26T14:07:11;100400.94;;;28.74;39.94
78014;BME280;67222;50.182;8.734;2023-06-26T14:09:36;100410.78;;;29.01;41.11
78014;BME280;67222;50.182;8.734;2023-06-26T14:12:02;100417.09;;;28.93;38.07
78014;BME280;67222;50.182;8.734;2023-06-26T14:14:28;100425.28;;;29.10;38.51
78014;BME280;67222;50.182;8.734;2023-06-26T14:16:53;100412.84;;;29.13;36.47
78014;BME280;67222;50.182;8.734;2023-06-26T14:19:19;100415.28;;;29.06;36.57
78014;BME280;67222;50.182;8.734;2023-06-26T14:21:44;100410.63;;;28.80;35.76
78014;BME280;67222;50.182;8.734;2023-06-26T14:24:10;100421.94;;;28.61;36.43
78014;BME280;67222;50.182;8.734;2023-06-26T14:26:35;100414.66;;;28.05;36.25
78014;BME280;67222;50.182;8.734;2023-06-26T14:29:02;100422.72;;;27.93;36.39
78014;BME280;67222;50.182;8.734;2023-06-26T14:31:27;100413.81;;;27.79;37.52
78014;BME280;67222;50.182;8.734;2023-06-26T14:33:52;100421.66;;;27.63;38.41
78014;BME280;67222;50.182;8.734;2023-06-26T14:36:18;100417.28;;;27.53;37.79
78014;BME280;67222;50.182;8.734;2023-06-26T14:38:44;100412.28;;;27.55;38.25
78014;BME280;67222;50.182;8.734;2023-06-26T14:41:09;100415.13;;;27.50;38.71
78014;BME280;67222;50.182;8.734;2023-06-26T14:43:35;100411.63;;;27.58;37.58
78014;BME280;67222;50.182;8.734;2023-06-26T14:46:00;100407.78;;;27.59;37.26
78014;BME280;67222;50.182;8.734;2023-06-26T14:48:26;100415.22;;;27.67;35.46
78014;BME280;67222;50.182;8.734;2023-06-26T14:50:51;100413.78;;;27.70;35.89
78014;BME280;67222;50.182;8.734;2023-06-26T14:53:17;100409.75;;;27.67;35.88
78014;BME280;67222;50.182;8.734;2023-06-26T14:55:42;100419.78;;;27.81;35.67
78014;BME280;67222;50.182;8.734;2023-06-26T14:58:07;100417.03;;;27.81;35.34
78014;BME280;67222;50.182;8.734;2023-06-26T15:00:33;100422.31;;;27.68;34.99
78014;BME280;67222;50.182;8.734;2023-06-26T15:02:58;100423.00;;;27.34;35.76
78014;BME280;67222;50.182;8.734;2023-06-26T15:05:24;100429.16;;;27.49;35.37
78014;BME280;67222;50.182;8.734;2023-06-26T15:07:49;100432.38;;;27.51;35.67
78014;BME280;67222;50.182;8.734;2023-06-26T15:10:14;100430.00;;;27.58;36.47
78014;BME280;67222;50.182;8.734;2023-06-26T15:12:42;100430.38;;;27.65;33.92
78014;BME280;67222;50.182;8.734;2023-06-26T15:15:08;100431.41;;;27.86;36.29
78014;BME280;67222;50.182;8.734;2023-06-26T15:17:33;100429.78;;;27.85;35.12
78014;BME280;67222;50.182;8.734;2023-06-26T15:19:59;100435.75;;;27.79;34.50
78014;BME280;67222;50.182;8.734;2023-06-26T15:22:26;100426.81;;;27.64;34.13
78014;BME280;67222;50.182;8.734;2023-06-26T15:24:52;100440.00;;;27.23;33.44
78014;BME280;67222;50.182;8.734;2023-06-26T15:27:17;100437.28;;;27.23;34.53
78014;BME280;67222;50.182;8.734;2023-06-26T15:29:42;100441.97;;;27.31;35.06
78014;BME280;67222;50.182;8.734;2023-06-26T15:32:08;100431.22;;;27.34;35.51
78014;BME280;67222;50.182;8.734;2023-06-26T15:34:33;100438.50;;;27.48;34.46
78014;BME280;67222;50.182;8.734;2023-06-26T15:36:59;100438.16;;;27.40;32.95
78014;BME280;67222;50.182;8.734;2023-06-26T15:39:24;100446.28;;;27.54;33.95
78014;BME280;67222;50.182;8.734;2023-06-26T15:41:49;100449.56;;;27.65;35.95
78014;BME280;67222;50.182;8.734;2023-06-26T15:44:15;100448.47;;;27.43;32.42
78014;BME280;67222;50.182;8.734;2023-06-26T15:46:40;100455.75;;;27.48;34.34
78014;BME280;67222;50.182;8.734;2023-06-26T15:49:05;100453.06;;;27.26;32.69
78014;BME280;67222;50.182;8.734;2023-06-26T15:51:30;100451.59;;;27.20;33.50
78014;BME280;67222;50.182;8.734;2023-06-26T15:53:58;100454.00;;;27.21;33.74
78014;BME280;67222;50.182;8.734;2023-06-26T15:56:24;100445.66;;;27.26;35.03
78014;BME280;67222;50.182;8.734;2023-06-26T15:58:49;100460.56;;;27.11;32.32
78014;BME280;67222;50.182;8.734;2023-06-26T16:01:14;100453.75;;;27.00;33.53
78014;BME280;67222;50.182;8.734;2023-06-26T16:03:41;100461.31;;;26.81;33.95
78014;BME280;67222;50.182;8.734;2023-06-26T16:06:09;100460.28;;;26.77;33.54
78014;BME280;67222;50.182;8.734;2023-06-26T16:08:35;100467.31;;;26.69;34.18
78014;BME280;67222;50.182;8.734;2023-06-26T16:11:01;100462.34;;;26.49;32.19
78014;BME280;67222;50.182;8.734;2023-06-26T16:13:27;100459.41;;;26.45;32.80
78014;BME280;67222;50.182;8.734;2023-06-26T16:15:53;100471.06;;;26.37;33.28
78014;BME280;67222;50.182;8.734;2023-06-26T16:18:18;100473.59;;;26.34;35.12
78014;BME280;67222;50.182;8.734;2023-06-26T16:20:43;100476.63;;;26.32;34.27
78014;BME280;67222;50.182;8.734;2023-06-26T16:23:09;100470.19;;;26.14;33.20
78014;BME280;67222;50.182;8.734;2023-06-26T16:25:34;100465.03;;;25.99;33.38
78014;BME280;67222;50.182;8.734;2023-06-26T16:28:00;100470.00;;;25.97;35.06
78014;BME280;67222;50.182;8.734;2023-06-26T16:30:25;100478.50;;;25.82;32.69
78014;BME280;67222;50.182;8.734;2023-06-26T16:32:50;100481.16;;;25.87;33.51
78014;BME280;67222;50.182;8.734;2023-06-26T16:35:16;100472.34;;;25.76;34.29
78014;BME280;67222;50.182;8.734;2023-06-26T16:37:41;100482.34;;;25.81;34.88
78014;BME280;67222;50.182;8.734;2023-06-26T16:40:07;100482.56;;;25.71;33.05
78014;BME280;67222;50.182;8.734;2023-06-26T16:42:32;100483.72;;;25.64;33.36
78014;BME280;67222;50.182;8.734;2023-06-26T16:44:58;100483.84;;;25.59;35.20
78014;BME280;67222;50.182;8.734;2023-06-26T16:47:23;100487.19;;;25.56;36.44
78014;BME280;67222;50.182;8.734;2023-06-26T16:49:49;100488.41;;;25.50;34.68
78014;BME280;67222;50.182;8.734;2023-06-26T16:52:14;100479.88;;;25.38;36.05
78014;BME280;67222;50.182;8.734;2023-06-26T16:54:39;100489.97;;;25.38;36.16
78014;BME280;67222;50.182;8.734;2023-06-26T16:57:05;100478.66;;;25.30;37.92
78014;BME280;67222;50.182;8.734;2023-06-26T16:59:30;100487.00;;;25.20;36.48
78014;BME280;67222;50.182;8.734;2023-06-26T17:01:55;100490.44;;;25.12;37.45
78014;BME280;67222;50.182;8.734;2023-06-26T17:04:27;100487.28;;;25.05;36.80
78014;BME280;67222;50.182;8.734;2023-06-26T17:06:52;100500.41;;;25.03;37.06
78014;BME280;67222;50.182;8.734;2023-06-26T17:09:17;100500.81;;;24.91;37.24
78014;BME280;67222;50.182;8.734;2023-06-26T17:11:43;100509.47;;;24.80;37.66
78014;BME280;67222;50.182;8.734;2023-06-26T17:14:08;100517.00;;;24.69;36.56
78014;BME280;67222;50.182;8.734;2023-06-26T17:16:33;100509.41;;;24.66;37.17
78014;BME280;67222;50.182;8.734;2023-06-26T17:18:59;100509.56;;;24.37;36.80
78014;BME280;67222;50.182;8.734;2023-06-26T17:21:24;100511.69;;;24.40;38.17
78014;BME280;67222;50.182;8.734;2023-06-26T17:23:50;100512.56;;;24.35;38.12
78014;BME280;67222;50.182;8.734;2023-06-26T17:26:15;100523.84;;;24.29;36.10
78014;BME280;67222;50.182;8.734;2023-06-26T17:28:40;100530.94;;;24.25;38.11
78014;BME280;67222;50.182;8.734;2023-06-26T17:31:06;100535.88;;;24.23;39.09